• Join FlightAware (Why Join?)
  • Login
  • US Flag 
09:33PM EDT


 

Airport Tracker/Info


-or-


 

Live Flight TrackerFlight Track Log ✈ CTL18 ✈ 20/May/2013 ✈ KMBS - KYIP

Flight Track Log - Related Links

Times and Time Zones

All times are in EDT time to prevent confusion due to time zone crossing. See the CTL18 flight status page for this flight to view local times or setup timezone preferences in your user account.

Time Position Orientation Groundspeed Altitude Reporting Facility
EDT Latitude Longitude Course Direction KTS MPH feet Rate Location/Type
07:59PM 43.3619 -84.0057 160° South  Level Estimated
08:00PM 43.3366 -83.9838 148° Southeast  Level FlightAware Approximate
08:01PM 43.3080 -83.9718 160° South  Level Estimated
08:02PM 43.2807 -83.9553 156° South  Level FlightAware Approximate
08:03PM 43.2533 -83.9388 156° South  Level FlightAware Approximate
08:04PM 43.2247 -83.9271 163° South  Level Estimated
08:05PM 43.1965 -83.9134 161° South  Level FlightAware Approximate
08:06PM 43.1683 -83.8997 161° South  Level FlightAware Approximate
08:07PM 43.1401 -83.8861 161° South  Level FlightAware Approximate
08:07PM 42.9469 -83.7942 161° South 157 181 5,100  Level Cleveland Center
08:08PM 43.1115 -83.8746 160° South  Level Estimated
08:08PM 42.9078 -83.7750 160° South 160 184 5,100  Level Cleveland Center
08:09PM 43.0835 -83.8603 160° South  Level FlightAware Approximate
08:09PM 42.8669 -83.7503 156° South 157 181 5,000  Level Cleveland Center
08:10PM 43.0555 -83.8461 160° South  Level FlightAware Approximate
08:10PM 42.8256 -83.7342 164° South 155 178 5,000  Level Cleveland Center
08:11PM 43.0275 -83.8318 160° South  Level FlightAware Approximate
08:11PM 42.7800 -83.7233 170° South 153 176 5,000  Level Cleveland Center
08:12PM 42.9995 -83.8176 160° South  Level FlightAware Approximate
08:12PM 42.7386 -83.7100 167° South 154 177 5,000  Level Cleveland Center
08:13PM 42.6972 -83.6994 169° South 153 176 5,000 -120 Level Cleveland Center
08:15PM 42.6519 -83.6858 168° South 157 181 4,800 -300 Descending Cleveland Center
08:16PM 42.6086 -83.6694 164° South 169 194 4,500 -360 Descending Cleveland Center
08:17PM 42.5631 -83.6506 163° South 163 188 4,100 -420 Descending Cleveland Center
08:18PM 42.5175 -83.6369 168° South 167 192 3,700 -360 Descending Cleveland Center
08:19PM 42.4722 -83.6206 165° South 164 189 3,400 -300 Descending Cleveland Center
08:20PM 42.4267 -83.6044 165° South 166 191 3,100 -300 Descending Cleveland Center
08:21PM 42.3814 -83.5853 163° South 165 190 2,900 -300 Descending Cleveland Center
08:22PM 42.3403 -83.5667 161° South 166 191 2,600 -360 Descending Cleveland Center
08:23PM 42.2969 -83.5419 157° South 158 182 2,200 -720 Descending Cleveland Center
08:24PM 42.2558 -83.5233 161° South 148 170 1,200 -1,020 Descending Cleveland Center
08:26PM 42.2333 -83.5167 160° South  Level FlightAware Approximate
08:33PM 42.2393 -83.5310 160° South  Level Estimated